Time;durP1;ratioP1;P1;durP2;ratioP2;P2;SDS_P1;SDS_P2;PMS_P1;PMS_P2;Temp;Humidity;BMP_temperature;BMP_pressure;BME280_temperature;BME280_humidity;BME280_pressure;Samples;Min_cycle;Max_cycle;Signal;HPM_P1;HPM_P2
2022/05/19 00:00:29;;;;;;;8.75;1.60;;;;;;;7.87;100.00;100978.34;1783747;80;20968;-44
2022/05/19 00:02:56;;;;;;;2.72;1.77;;;;;;;7.87;100.00;100978.77;1783590;80;20925;-44
2022/05/19 00:05:23;;;;;;;5.58;1.77;;;;;;;7.84;100.00;100983.91;1783549;80;21250;-44
2022/05/19 00:07:50;;;;;;;1.80;1.70;;;;;;;7.83;100.00;100981.78;1783502;80;20940;-44
2022/05/19 00:10:19;;;;;;;8.93;1.80;;;;;;;7.80;100.00;100984.33;1755388;80;20897;-44
2022/05/19 00:12:48;;;;;;;8.38;1.85;;;;;;;7.77;100.00;100981.75;1783337;80;20932;-44
2022/05/19 00:15:16;;;;;;;6.05;1.90;;;;;;;7.76;100.00;100990.34;1783508;80;20984;-44
2022/05/19 00:17:43;;;;;;;4.55;1.98;;;;;;;7.74;100.00;100981.75;1783702;80;21218;-44
2022/05/19 00:20:12;;;;;;;2.45;1.80;;;;;;;7.72;100.00;100989.91;1783584;80;21498;-43
2022/05/19 00:22:40;;;;;;;4.80;1.90;;;;;;;7.72;100.00;100980.48;1783722;80;21429;-43
2022/05/19 00:25:08;;;;;;;1.72;1.62;;;;;;;7.74;100.00;100989.06;1783304;80;20893;-44
2022/05/19 00:27:36;;;;;;;2.75;1.70;;;;;;;7.75;100.00;100990.78;1783651;80;20972;-44
2022/05/19 00:30:04;;;;;;;6.25;1.70;;;;;;;7.75;100.00;100998.52;1783507;80;21455;-44
2022/05/19 00:32:31;;;;;;;1.87;1.70;;;;;;;7.75;100.00;100995.06;1783354;80;21022;-44
2022/05/19 00:34:58;;;;;;;2.12;1.70;;;;;;;7.73;100.00;100991.62;1783651;80;20991;-44
2022/05/19 00:37:25;;;;;;;5.62;1.60;;;;;;;7.72;100.00;100997.23;1783617;80;21018;-44
2022/05/19 00:39:54;;;;;;;3.65;2.00;;;;;;;7.72;100.00;100997.23;1783648;80;20905;-44
2022/05/19 00:45:08;;;;;;;7.28;1.67;;;;;;;7.73;100.00;101001.53;1783643;80;20837;-44
2022/05/19 00:47:50;;;;;;;2.98;1.60;;;;;;;7.73;100.00;101005.39;1783753;80;21004;-44
2022/05/19 00:50:38;;;;;;;1.60;1.20;;;;;;;7.73;100.00;101005.80;1783236;80;21522;-44
2022/05/19 00:53:10;;;;;;;3.65;1.90;;;;;;;7.70;100.00;101006.64;1778187;80;20897;-44
2022/05/19 00:55:44;;;;;;;4.37;1.70;;;;;;;7.68;100.00;101017.38;1775041;80;21069;-44
2022/05/19 00:58:19;;;;;;;11.12;1.70;;;;;;;7.67;100.00;101007.92;1774943;80;20972;-44
2022/05/19 01:00:46;;;;;;;5.75;1.55;;;;;;;7.64;100.00;101010.95;1773787;80;20912;-44
2022/05/19 01:03:15;;;;;;;7.45;1.62;;;;;;;7.60;99.77;101010.94;1775048;80;20991;-43
2022/05/19 01:05:50;;;;;;;5.80;1.60;;;;;;;7.58;99.93;101013.95;1775115;80;20881;-44
2022/05/19 01:08:30;;;;;;;;;;;;;;;7.54;99.88;101025.52;1777830;80;20935;-44
2022/05/19 01:10:58;;;;;;;3.50;1.30;;;;;;;7.52;99.61;101018.21;1774989;80;20097;-44
2022/05/19 01:13:30;;;;;;;2.67;1.55;;;;;;;7.44;99.78;101020.31;1774947;80;20912;-44
2022/05/19 01:15:54;;;;;;;1.60;1.50;;;;;;;7.36;99.78;101028.45;1774312;80;20897;-43
2022/05/19 01:18:23;;;;;;;4.42;1.32;;;;;;;7.31;99.63;101017.27;1774903;80;20869;-44
2022/05/19 01:20:50;;;;;;;1.30;1.25;;;;;;;7.29;99.75;101025.42;1720398;80;21168;-44
2022/05/19 01:23:41;;;;;;;7.95;1.60;;;;;;;7.25;99.58;101027.55;1775276;80;20972;-44
2022/05/19 01:26:33;;;;;;;2.45;1.60;;;;;;;7.21;99.68;101027.11;1774951;80;20913;-43
2022/05/19 01:29:00;;;;;;;3.62;1.57;;;;;;;7.14;99.87;101023.64;1775094;80;20890;-43
2022/05/19 01:31:36;;;;;;;3.45;1.47;;;;;;;7.09;100.00;101026.19;1774909;80;20924;-44
2022/05/19 01:34:04;;;;;;;1.25;1.22;;;;;;;7.07;100.00;101024.03;1774957;80;21253;-44
2022/05/19 01:36:32;;;;;;;2.00;1.55;;;;;;;7.04;100.00;101030.01;1775001;80;20984;-44
2022/05/19 01:39:11;;;;;;;5.00;1.42;;;;;;;7.03;100.00;101028.73;1775030;80;21027;-44
2022/05/19 01:42:07;;;;;;;2.58;1.67;;;;;;;7.01;100.00;101028.70;1775052;80;20972;-44
2022/05/19 01:44:56;;;;;;;6.60;1.60;;;;;;;6.95;100.00;101029.97;1774831;80;21043;-43
2022/05/19 01:47:28;;;;;;;7.22;1.95;;;;;;;6.90;100.00;101034.23;1775148;80;21265;-44
2022/05/19 01:50:13;;;;;;;2.77;1.60;;;;;;;6.86;100.00;101032.50;1774830;80;20976;-44
2022/05/19 01:52:51;;;;;;;1.85;1.60;;;;;;;6.82;100.00;101032.02;1720427;82;20961;-44
2022/05/19 01:55:29;;;;;;;4.97;1.55;;;;;;;6.79;100.00;101035.86;1768920;80;20928;-44
2022/05/19 01:58:06;;;;;;;6.37;1.72;;;;;;;6.73;100.00;101040.56;1774991;80;20991;-44
2022/05/19 02:00:33;;;;;;;5.33;2.00;;;;;;;6.68;100.00;101036.66;1774067;80;21932;-43
2022/05/19 02:03:22;;;;;;;1.75;1.65;;;;;;;6.64;100.00;101034.92;1774906;80;20862;-44
2022/05/19 02:06:01;;;;;;;4.37;1.80;;;;;;;6.63;100.00;101040.92;1774959;80;20877;-44
2022/05/19 02:08:35;;;;;;;4.30;1.57;;;;;;;6.61;100.00;101039.61;1775124;80;20925;-44
2022/05/19 02:11:09;;;;;;;3.63;1.80;;;;;;;6.61;100.00;101047.77;1774663;80;20885;-44
2022/05/19 02:13:36;;;;;;;4.53;1.70;;;;;;;6.58;100.00;101049.88;1774891;80;21139;-43
2022/05/19 02:16:05;;;;;;;2.92;1.62;;;;;;;6.57;100.00;101047.31;1774966;80;20936;-44
2022/05/19 02:18:33;;;;;;;4.75;1.72;;;;;;;6.60;100.00;101051.20;1775150;80;20980;-43
2022/05/19 02:21:02;;;;;;;10.15;1.55;;;;;;;6.61;100.00;101052.91;1774800;80;21018;-43
2022/05/19 02:23:31;;;;;;;2.50;1.47;;;;;;;6.59;100.00;101050.31;1775071;80;21055;-43
2022/05/19 02:25:58;;;;;;;3.20;1.80;;;;;;;6.59;100.00;101055.47;1774914;80;21064;-44
2022/05/19 02:28:43;;;;;;;6.62;1.77;;;;;;;6.61;100.00;101051.19;1774927;80;20972;-44
2022/05/19 02:31:12;;;;;;;1.45;1.45;;;;;;;6.65;100.00;101060.21;1775068;80;20940;-43
2022/05/19 02:33:39;;;;;;;3.15;1.60;;;;;;;6.69;100.00;101065.81;1774781;80;21531;-44
2022/05/19 02:36:09;;;;;;;5.05;1.62;;;;;;;6.74;100.00;101062.43;1775194;80;20925;-44
2022/05/19 02:38:36;;;;;;;1.62;1.52;;;;;;;6.81;100.00;101063.34;1775017;80;21205;-44
2022/05/19 02:41:03;;;;;;;2.50;1.70;;;;;;;6.85;100.00;101069.38;1774967;80;21000;-44
2022/05/19 02:43:31;;;;;;;5.87;1.77;;;;;;;6.89;100.00;101069.39;1775034;80;20896;-44
2022/05/19 02:45:58;;;;;;;6.33;1.72;;;;;;;6.89;100.00;101071.97;1774767;80;20964;-43
2022/05/19 02:48:25;;;;;;;6.30;1.52;;;;;;;6.89;100.00;101070.68;1775136;80;20917;-43
2022/05/19 02:50:52;;;;;;;2.85;2.10;;;;;;;6.89;100.00;101068.55;1774993;80;21252;-43
2022/05/19 02:53:19;;;;;;;3.98;1.85;;;;;;;6.90;100.00;101072.40;1777150;80;20913;-44
2022/05/19 02:55:46;;;;;;;4.58;2.00;;;;;;;6.90;100.00;101073.69;1780709;80;20964;-44
2022/05/19 02:58:14;;;;;;;4.33;1.82;;;;;;;6.92;100.00;101080.55;1780611;80;21434;-44
2022/05/19 03:00:45;;;;;;;4.72;2.08;;;;;;;6.95;100.00;101078.88;1780850;80;20987;-44
2022/05/19 03:03:12;;;;;;;2.00;1.87;;;;;;;6.98;100.00;101078.05;1780600;80;21190;-43
2022/05/19 03:08:41;;;;;;;4.72;2.77;;;;;;;7.06;100.00;101086.67;1798315;79;22496;-43
2022/05/19 03:11:08;;;;;;;4.22;1.80;;;;;;;7.06;100.00;101090.53;1758169;80;21463;-43
2022/05/19 03:13:36;;;;;;;2.33;2.02;;;;;;;7.09;99.54;101087.97;1758015;81;21286;-43
2022/05/19 03:16:09;;;;;;;6.70;2.50;;;;;;;7.16;99.86;101087.59;1758111;81;20937;-43
2022/05/19 03:18:36;;;;;;;3.72;2.42;;;;;;;7.22;99.61;101097.08;1758197;81;20888;-44
2022/05/19 03:21:03;;;;;;;5.15;2.20;;;;;;;7.29;99.23;101094.95;1758004;81;20992;-43
2022/05/19 03:23:32;;;;;;;2.10;1.90;;;;;;;7.36;99.02;101094.13;1758009;81;20868;-44
2022/05/19 03:25:59;;;;;;;2.30;2.10;;;;;;;7.42;98.52;101098.45;1757864;81;21375;-44
2022/05/19 03:28:26;;;;;;;2.00;1.90;;;;;;;7.50;98.19;101102.36;1758016;81;20932;-44
2022/05/19 03:30:53;;;;;;;3.15;2.33;;;;;;;7.57;97.57;101095.09;1758070;81;20924;-44
2022/05/19 03:33:21;;;;;;;4.92;2.27;;;;;;;7.64;97.24;101092.96;1757973;80;20988;-44
2022/05/19 03:35:59;;;;;;;2.35;1.72;;;;;;;7.70;97.17;101100.70;1758113;81;20877;-44
2022/05/19 03:38:27;;;;;;;4.03;1.85;;;;;;;7.76;96.63;101095.59;1758132;81;21359;-44
2022/05/19 03:40:54;;;;;;;2.83;1.87;;;;;;;7.85;96.26;101102.51;1757889;81;20963;-44
2022/05/19 03:43:21;;;;;;;5.25;1.67;;;;;;;7.93;96.05;101099.92;1758029;81;20857;-44
2022/05/19 03:45:49;;;;;;;1.90;1.80;;;;;;;8.02;95.92;101105.13;1752552;81;21019;-44
2022/05/19 03:48:17;;;;;;;4.60;1.72;;;;;;;8.13;94.82;101106.44;1749773;82;20937;-45
2022/05/19 03:50:46;;;;;;;4.33;1.52;;;;;;;8.26;94.47;101103.88;1749713;81;21232;-44
2022/05/19 03:53:13;;;;;;;2.12;1.70;;;;;;;8.39;93.48;101101.75;1749743;82;21791;-44
2022/05/19 03:55:40;;;;;;;1.50;1.40;;;;;;;8.60;92.19;101104.80;1749782;82;20988;-45
2022/05/19 03:58:08;;;;;;;4.97;1.52;;;;;;;8.87;91.89;101113.39;1749694;81;20940;-44
2022/05/19 04:00:35;;;;;;;2.55;1.32;;;;;;;9.06;89.78;101105.18;1749667;81;20967;-44
2022/05/19 04:03:03;;;;;;;3.10;1.98;;;;;;;9.27;88.73;101106.45;1749827;82;21257;-44
2022/05/19 04:05:31;;;;;;;1.85;1.57;;;;;;;9.46;88.49;101100.34;1720330;82;20921;-44
2022/05/19 04:07:58;;;;;;;4.03;1.20;;;;;;;9.66;88.27;101105.88;1742291;81;21444;-44
2022/05/19 04:10:28;;;;;;;1.12;1.02;;;;;;;9.82;86.59;101108.40;1736375;82;21460;-44
2022/05/19 04:12:56;;;;;;;2.70;1.15;;;;;;;9.92;85.04;101099.30;1736295;82;20952;-44
2022/05/19 04:15:23;;;;;;;3.17;1.50;;;;;;;10.06;84.05;101100.92;1736780;82;21641;-44
2022/05/19 04:17:50;;;;;;;4.90;1.60;;;;;;;10.15;82.75;101109.07;1736461;82;20905;-44
2022/05/19 04:20:17;;;;;;;1.90;1.40;;;;;;;10.20;81.86;101110.77;1736194;82;21518;-45
2022/05/19 04:22:45;;;;;;;9.33;1.92;;;;;;;10.30;82.15;101110.28;1735805;82;21431;-44
2022/05/19 04:25:13;;;;;;;2.70;1.07;;;;;;;10.40;81.83;101117.97;1735981;82;20951;-45
2022/05/19 04:27:40;;;;;;;3.90;1.37;;;;;;;10.52;81.41;101120.93;1735782;82;21364;-44
2022/05/19 04:30:09;;;;;;;4.55;1.47;;;;;;;10.59;80.25;101116.99;1735861;82;20976;-44
2022/05/19 04:32:36;;;;;;;1.20;1.20;;;;;;;10.60;79.41;101127.77;1735900;82;20976;-44
2022/05/19 04:35:05;;;;;;;2.05;1.40;;;;;;;10.64;79.98;101127.32;1735992;82;21562;-44
2022/05/19 04:37:32;;;;;;;2.98;1.20;;;;;;;10.70;79.76;101126.39;1715296;82;20937;-44
2022/05/19 04:40:03;;;;;;;2.92;1.30;;;;;;;10.80;79.97;101129.34;1736039;81;21211;-44
2022/05/19 04:42:30;;;;;;;3.12;1.12;;;;;;;11.02;80.41;101131.30;1715164;82;20874;-43
2022/05/19 04:44:58;;;;;;;2.25;1.50;;;;;;;11.36;80.15;101130.09;1736276;82;21508;-43
2022/05/19 04:47:25;;;;;;;1.57;1.02;;;;;;;11.59;76.79;101135.46;1736008;82;20969;-43
2022/05/19 04:49:52;;;;;;;6.72;1.02;;;;;;;11.67;74.92;101131.48;1735987;82;20964;-43
2022/05/19 04:52:20;;;;;;;1.77;1.10;;;;;;;11.74;74.75;101139.14;1736102;82;21233;-43
2022/05/19 04:54:48;;;;;;;2.52;1.40;;;;;;;11.80;73.47;101138.22;1715079;82;20890;-43
2022/05/19 04:57:15;;;;;;;2.67;2.50;;;;;;;11.78;73.16;101138.25;1735901;82;20969;-43
2022/05/19 04:59:42;;;;;;;9.88;1.87;;;;;;;11.76;71.94;101140.02;1735948;82;20996;-43
2022/05/19 05:02:11;;;;;;;5.87;3.87;;;;;;;11.62;72.40;101145.37;1735933;82;21004;-43
2022/05/19 05:04:38;;;;;;;4.65;2.00;;;;;;;11.65;73.56;101149.64;1736003;82;21403;-43
2022/05/19 05:07:06;;;;;;;4.87;2.85;;;;;;;11.76;73.93;101146.50;1737012;82;20972;-43
2022/05/19 05:09:33;;;;;;;6.33;3.45;;;;;;;11.77;72.02;101154.70;1749885;81;21023;-43
2022/05/19 05:12:01;;;;;;;3.98;1.98;;;;;;;11.69;72.82;101146.58;1749769;81;20865;-43
2022/05/19 05:14:29;;;;;;;1.77;1.20;;;;;;;11.71;72.19;101154.75;1750001;82;20936;-43
2022/05/19 05:16:56;;;;;;;1.50;1.20;;;;;;;11.68;71.78;101166.45;1749929;81;22137;-43
2022/05/19 05:19:24;;;;;;;4.50;1.60;;;;;;;11.66;71.77;101150.52;1749926;82;21035;-43
2022/05/19 05:21:59;;;;;;;1.60;1.50;;;;;;;11.79;71.34;101158.13;1749841;81;21519;-43
2022/05/19 05:24:26;;;;;;;1.42;1.20;;;;;;;11.98;72.10;101161.77;1749895;82;21510;-43
2022/05/19 05:26:54;;;;;;;4.00;1.90;;;;;;;12.26;71.37;101157.98;1749962;81;20952;-43
2022/05/19 05:29:21;;;;;;;3.87;1.57;;;;;;;12.39;71.60;101159.95;1749956;81;21217;-43
2022/05/19 05:31:48;;;;;;;3.65;1.85;;;;;;;12.45;70.13;101159.86;1749857;82;20969;-43
2022/05/19 05:34:15;;;;;;;1.98;1.75;;;;;;;12.47;69.97;101161.98;1749982;81;20920;-43
2022/05/19 05:36:42;;;;;;;7.05;1.77;;;;;;;12.58;69.97;101168.31;1750118;82;21625;-43
2022/05/19 05:39:10;;;;;;;2.17;1.10;;;;;;;12.65;69.95;101170.80;1749875;80;21031;-43
2022/05/19 05:41:38;;;;;;;3.27;1.25;;;;;;;12.84;70.13;101163.14;1750113;82;21412;-43
2022/05/19 05:44:05;;;;;;;1.62;1.22;;;;;;;13.01;68.63;101170.65;1749951;82;20900;-43
2022/05/19 05:46:33;;;;;;;4.37;1.50;;;;;;;12.97;68.71;101165.09;1750050;82;21419;-43
2022/05/19 05:49:00;;;;;;;7.55;1.42;;;;;;;12.98;68.96;101174.18;1749888;82;20932;-43
2022/05/19 05:51:28;;;;;;;1.98;1.22;;;;;;;13.04;68.78;101168.03;1749881;82;20948;-43
2022/05/19 05:53:55;;;;;;;3.42;1.40;;;;;;;13.18;69.12;101184.22;1749909;81;21187;-43
2022/05/19 05:56:22;;;;;;;6.15;1.20;;;;;;;13.22;68.63;101176.78;1749732;82;21443;-43
2022/05/19 05:58:49;;;;;;;5.28;1.30;;;;;;;13.21;69.01;101181.56;1749958;82;20960;-43
2022/05/19 06:01:19;;;;;;;3.83;1.32;;;;;;;13.42;69.71;101185.96;1749572;82;21477;-43
2022/05/19 06:03:47;;;;;;;3.87;1.42;;;;;;;13.65;68.97;101178.19;1749808;81;21007;-43
2022/05/19 06:06:14;;;;;;;3.83;1.45;;;;;;;13.81;68.46;101185.24;1749975;82;21254;-43
2022/05/19 06:08:42;;;;;;;1.98;1.30;;;;;;;13.92;68.48;101179.39;1740870;82;20897;-43
2022/05/19 06:11:09;;;;;;;1.60;1.00;;;;;;;14.02;66.58;101178.75;1735741;82;20973;-43
2022/05/19 06:13:36;;;;;;;4.33;1.10;;;;;;;14.00;63.95;101184.87;1735909;82;20905;-43
2022/05/19 06:16:05;;;;;;;5.65;1.17;;;;;;;13.94;64.96;101190.63;1735937;82;20965;-43
2022/05/19 06:18:32;;;;;;;4.12;1.00;;;;;;;13.99;66.32;101194.88;1735951;82;21238;-43
2022/05/19 06:20:59;;;;;;;2.27;1.10;;;;;;;13.97;63.21;101190.98;1735975;82;21510;-43
2022/05/19 06:23:26;;;;;;;5.40;1.32;;;;;;;13.88;64.56;101202.89;1736047;82;21388;-43
2022/05/19 06:25:53;;;;;;;2.02;1.30;;;;;;;13.86;64.81;101189.91;1735729;82;20933;-43
2022/05/19 06:28:20;;;;;;;1.25;1.02;;;;;;;13.98;65.16;101189.25;1736017;82;21033;-43
2022/05/19 06:30:47;;;;;;;2.35;1.02;;;;;;;14.14;64.79;101193.22;1735773;81;21341;-43
2022/05/19 06:33:17;;;;;;;5.50;1.37;;;;;;;14.39;65.06;101199.66;1735855;82;20953;-43
2022/05/19 06:35:44;;;;;;;1.57;1.47;;;;;;;14.56;64.59;101191.45;1735887;82;21418;-43
2022/05/19 06:38:11;;;;;;;3.37;1.27;;;;;;;14.74;63.84;101199.30;1739176;82;21008;-43
2022/05/19 06:40:39;;;;;;;6.47;1.20;;;;;;;14.88;63.27;101201.13;1735788;82;20885;-43
2022/05/19 06:43:11;;;;;;;1.62;1.40;;;;;;;14.89;63.03;101202.84;1735947;82;20972;-43
2022/05/19 06:45:40;;;;;;;1.22;1.05;;;;;;;14.84;63.30;101200.80;1735737;82;20909;-43
2022/05/19 06:48:08;;;;;;;1.50;1.30;;;;;;;14.88;64.01;101206.34;1735916;82;20925;-44
2022/05/19 06:50:36;;;;;;;1.32;1.22;;;;;;;14.80;62.33;101201.78;1739562;82;21439;-43
2022/05/19 06:53:04;;;;;;;5.60;1.60;;;;;;;14.71;62.88;101204.59;1736165;82;21537;-43
2022/05/19 06:55:33;;;;;;;5.03;1.30;;;;;;;14.76;64.10;101215.31;1735788;82;21077;-43
2022/05/19 06:58:01;;;;;;;4.67;1.35;;;;;;;14.85;62.78;101200.34;1735786;81;20871;-43
2022/05/19 07:00:28;;;;;;;1.62;1.52;;;;;;;14.96;63.34;101209.20;1735958;82;20921;-43
2022/05/19 07:02:58;;;;;;;1.92;1.20;;;;;;;15.09;61.97;101208.02;1735841;82;21534;-44
2022/05/19 07:05:29;;;;;;;1.95;1.50;;;;;;;15.23;61.87;101208.50;1735998;82;20973;-43
2022/05/19 07:07:56;;;;;;;3.62;1.80;;;;;;;15.49;62.61;101203.50;1737909;82;21192;-43
2022/05/19 07:10:26;;;;;;;2.35;1.50;;;;;;;15.60;59.06;101199.30;1749759;81;20948;-43
2022/05/19 07:12:55;;;;;;;2.75;1.30;;;;;;;15.65;60.86;101213.06;1749793;82;21842;-43
2022/05/19 07:15:23;;;;;;;2.10;1.27;;;;;;;15.60;59.61;101204.52;1749724;82;20987;-44
2022/05/19 07:17:50;;;;;;;6.37;1.30;;;;;;;15.69;59.47;101201.64;1750019;82;21478;-44
2022/05/19 07:23:03;;;;;;;3.92;1.05;;;;;;;16.08;58.42;101202.73;1726624;82;20972;-43
2022/05/19 07:25:32;;;;;;;1.10;1.00;;;;;;;16.09;58.71;101205.75;1749857;82;20920;-43
2022/05/19 07:27:59;;;;;;;6.25;1.50;;;;;;;16.11;58.17;101204.85;1749808;82;20929;-44
2022/05/19 07:30:26;;;;;;;1.50;1.07;;;;;;;16.20;58.23;101211.09;1749888;81;20933;-43
2022/05/19 07:32:55;;;;;;;3.55;1.52;;;;;;;16.31;59.29;101199.02;1749896;82;21356;-44
2022/05/19 07:35:22;;;;;;;4.15;1.35;;;;;;;16.51;58.82;101190.55;1749792;81;21485;-44
2022/05/19 07:37:49;;;;;;;1.10;1.10;;;;;;;16.61;57.11;101193.72;1749574;81;20940;-44
2022/05/19 07:40:17;;;;;;;9.03;1.67;;;;;;;16.69;57.75;101194.80;1749826;81;21411;-43
2022/05/19 07:42:44;;;;;;;1.77;1.15;;;;;;;16.75;57.80;101201.98;1749728;82;20991;-44
2022/05/19 07:45:11;;;;;;;2.50;1.22;;;;;;;16.85;57.16;101207.78;1749916;81;21375;-44
2022/05/19 07:47:40;;;;;;;5.15;1.40;;;;;;;16.94;57.38;101194.39;1749707;82;20873;-43
2022/05/19 07:50:10;;;;;;;2.65;1.52;;;;;;;17.18;55.88;101199.72;1749762;82;21408;-43
2022/05/19 07:52:39;;;;;;;1.92;1.40;;;;;;;17.39;54.98;101203.81;1738956;81;21024;-43
2022/05/19 07:55:07;;;;;;;4.85;1.35;;;;;;;17.48;55.72;101196.09;1750176;82;21486;-44
2022/05/19 07:57:34;;;;;;;2.55;1.07;;;;;;;17.65;55.13;101191.55;1749993;82;21202;-43
2022/05/19 08:00:03;;;;;;;2.05;1.00;;;;;;;17.64;54.10;101207.70;1749791;81;20909;-43
2022/05/19 08:02:32;;;;;;;1.40;1.12;;;;;;;17.70;52.04;101201.40;1721841;82;20896;-43
2022/05/19 08:04:59;;;;;;;1.50;1.10;;;;;;;17.64;50.83;101209.48;1749956;82;20987;-43
2022/05/19 08:07:26;;;;;;;2.20;1.15;;;;;;;17.63;51.30;101198.61;1750006;82;20936;-44
2022/05/19 08:15:36;;;;;;;3.62;1.22;;;;;;;18.12;50.52;101185.94;1735938;82;20897;-44
2022/05/19 08:18:19;;;;;;;1.10;1.00;;;;;;;18.33;49.45;101173.75;1735899;82;20933;-45
2022/05/19 08:20:53;;;;;;;0.82;0.82;;;;;;;18.47;49.68;101178.45;1736011;82;20944;-44
2022/05/19 08:23:31;;;;;;;4.53;0.98;;;;;;;18.18;45.51;101181.77;1736053;82;21134;-44
2022/05/19 08:25:58;;;;;;;0.70;0.70;;;;;;;17.98;45.58;101183.34;1735789;82;20961;-43
2022/05/19 08:28:31;;;;;;;1.70;1.00;;;;;;;17.97;44.06;101187.35;1735921;82;21456;-44
2022/05/19 08:31:08;;;;;;;1.92;1.00;;;;;;;17.62;44.62;101190.36;1735960;82;20886;-44
2022/05/19 08:33:36;;;;;;;1.42;0.80;;;;;;;17.37;46.76;101184.23;1736039;82;21446;-43
2022/05/19 08:36:04;;;;;;;3.87;0.90;;;;;;;17.56;47.26;101186.67;1736032;82;21246;-44
2022/05/19 08:38:32;;;;;;;4.72;0.90;;;;;;;17.84;46.58;101189.11;1736103;82;20886;-44
2022/05/19 08:41:08;;;;;;;7.40;0.90;;;;;;;18.22;46.09;101185.97;1735991;82;20925;-43
2022/05/19 08:44:18;;;;;;;2.00;0.95;;;;;;;18.44;43.89;101174.20;1736116;82;20996;-44
2022/05/19 08:46:49;;;;;;;2.83;0.60;;;;;;;18.89;43.07;101168.42;1735976;82;20930;-44
2022/05/19 08:49:42;;;;;;;0.93;0.70;;;;;;;18.99;39.68;101178.10;1736031;81;21011;-44
2022/05/19 08:52:21;;;;;;;2.75;0.80;;;;;;;18.83;39.46;101173.06;1735904;81;20989;-44
2022/05/19 08:54:52;;;;;;;3.27;0.75;;;;;;;18.84;40.80;101174.77;1735965;82;20974;-44
2022/05/19 08:57:31;;;;;;;1.15;0.90;;;;;;;19.14;41.65;101166.54;1715235;82;20897;-44
2022/05/19 09:00:09;;;;;;;1.80;1.00;;;;;;;19.45;39.42;101175.69;1736006;82;20953;-44
2022/05/19 09:02:46;;;;;;;0.75;0.70;;;;;;;19.67;39.43;101167.23;1735920;82;21097;-43
2022/05/19 09:05:43;;;;;;;3.90;0.73;;;;;;;19.96;39.28;101161.61;1736272;82;20936;-43
2022/05/19 09:08:16;;;;;;;;;;;;;;;20.15;40.12;101170.78;1697999;82;21094;-44
2022/05/19 09:11:01;;;;;;;3.12;0.80;;;;;;;20.03;37.80;101163.02;1735753;82;20096;-44
2022/05/19 09:13:44;;;;;;;3.50;0.80;;;;;;;19.79;38.63;101164.52;1736127;82;20850;-44
2022/05/19 09:16:16;;;;;;;1.17;0.60;;;;;;;19.60;39.92;101163.67;1735897;82;21394;-45
2022/05/19 09:18:48;;;;;;;1.70;0.88;;;;;;;19.45;38.36;101167.81;1735914;82;21021;-44
2022/05/19 09:21:15;;;;;;;1.75;0.42;;;;;;;19.17;39.38;101175.14;1739504;81;21072;-44
2022/05/19 09:23:42;;;;;;;1.55;0.70;;;;;;;18.76;38.51;101172.46;1735852;82;21348;-44
2022/05/19 09:26:37;;;;;;;0.70;0.70;;;;;;;18.58;38.53;101175.39;1736001;82;20862;-45
2022/05/19 09:29:08;;;;;;;2.77;0.60;;;;;;;18.88;39.03;101168.48;1735944;82;21265;-43
2022/05/19 09:31:43;;;;;;;6.80;0.85;;;;;;;19.48;36.84;101161.98;1735819;82;20905;-43
2022/05/19 09:34:10;;;;;;;2.47;0.70;;;;;;;19.92;35.67;101163.52;1715135;82;22248;-44
2022/05/19 09:36:41;;;;;;;1.77;0.80;;;;;;;19.99;35.65;101169.81;1735794;81;20933;-43
2022/05/19 09:39:13;;;;;;;0.98;0.50;;;;;;;19.57;35.98;101165.97;1735951;82;20842;-43
2022/05/19 09:41:48;;;;;;;1.10;0.72;;;;;;;19.27;37.57;101160.30;1736239;82;21851;-44
2022/05/19 09:44:16;;;;;;;3.58;0.57;;;;;;;19.45;39.50;101153.38;1736024;82;21688;-43
2022/05/19 09:46:54;;;;;;;0.53;0.50;;;;;;;19.77;37.82;101150.60;1735860;82;20933;-44
2022/05/19 09:49:33;;;;;;;4.25;0.60;;;;;;;19.63;36.09;101156.48;1734578;82;20933;-44
2022/05/19 09:52:03;;;;;;;0.78;0.78;;;;;;;19.28;35.54;101150.19;1735869;82;20893;-43
2022/05/19 09:54:33;;;;;;;0.70;0.50;;;;;;;19.13;37.01;101175.33;1736050;82;21225;-44
2022/05/19 09:57:07;;;;;;;0.55;0.53;;;;;;;19.10;36.78;101150.94;1735895;82;20949;-43
2022/05/19 09:59:43;;;;;;;0.80;0.60;;;;;;;19.29;37.06;101149.27;1736999;82;20968;-42
2022/05/19 10:02:32;;;;;;;1.05;0.80;;;;;;;19.64;35.83;101156.05;1733856;82;20937;-43
2022/05/19 10:05:01;;;;;;;3.12;0.60;;;;;;;19.64;35.22;101156.88;1735975;82;21016;-43
2022/05/19 10:07:32;;;;;;;0.70;0.50;;;;;;;19.91;35.91;101147.84;1735868;82;21400;-44
2022/05/19 10:10:01;;;;;;;2.90;0.80;;;;;;;20.07;34.79;101147.48;1725392;81;20877;-44
2022/05/19 10:12:31;;;;;;;1.47;0.98;;;;;;;19.94;36.81;101151.63;1757643;81;20955;-43
2022/05/19 10:15:01;;;;;;;4.83;0.90;;;;;;;19.66;35.37;101143.69;1757626;81;21003;-44
2022/05/19 10:17:50;;;;;;;1.87;0.90;;;;;;;19.55;36.65;101138.06;1757387;81;20920;-43
2022/05/19 10:20:23;;;;;;;1.47;0.93;;;;;;;19.20;36.28;101134.33;1757711;81;21200;-43
2022/05/19 10:23:20;;;;;;;2.60;1.02;;;;;;;19.12;35.70;101129.89;1757619;81;20845;-44
2022/05/19 10:26:20;;;;;;;1.67;0.90;;;;;;;19.35;35.88;101118.84;1725534;81;21453;-43
2022/05/19 10:32:28;;;;;;;4.58;0.82;;;;;;;19.50;34.28;101131.25;1757671;81;21410;-43
2022/05/19 10:35:47;;;;;;;2.65;0.98;;;;;;;19.49;35.64;101126.92;1756992;81;21260;-43
2022/05/19 10:38:34;;;;;;;5.65;0.80;;;;;;;19.50;34.71;101111.56;1757527;81;20975;-43
2022/05/19 10:41:16;;;;;;;0.80;0.70;;;;;;;19.52;35.41;101113.66;1756903;81;20991;-43
2022/05/19 10:44:10;;;;;;;0.80;0.80;;;;;;;19.53;34.19;101114.05;1757333;81;20932;-44
2022/05/19 10:46:51;;;;;;;0.93;0.50;;;;;;;19.72;33.74;101122.39;1757387;81;21532;-43
2022/05/19 10:49:53;;;;;;;0.88;0.60;;;;;;;19.86;34.17;101111.72;1755534;81;21230;-43
2022/05/19 10:52:43;;;;;;;1.10;0.75;;;;;;;20.06;33.18;101107.69;1757565;81;21506;-43
2022/05/19 10:55:55;;;;;;;3.72;0.60;;;;;;;20.06;32.95;101098.97;1757264;81;21463;-43
2022/05/19 10:59:03;;;;;;;1.20;0.62;;;;;;;19.96;33.17;101095.92;1757971;81;21018;-44
2022/05/19 11:02:03;;;;;;;3.60;0.60;;;;;;;19.84;32.23;101107.00;1757450;81;20892;-44
2022/05/19 11:04:57;;;;;;;1.45;0.60;;;;;;;19.89;31.68;101094.50;1757857;81;21248;-43
2022/05/19 11:07:37;;;;;;;3.95;0.70;;;;;;;19.72;32.37;101102.70;1757126;81;20888;-44
2022/05/19 11:10:26;;;;;;;0.75;0.62;;;;;;;19.79;33.86;101096.23;1747500;81;21581;-43
2022/05/19 11:13:23;;;;;;;0.68;0.60;;;;;;;20.15;31.96;101100.30;1735892;82;20933;-43
2022/05/19 11:16:08;;;;;;;0.60;0.60;;;;;;;20.31;32.32;101096.45;1735695;82;20890;-43
2022/05/19 11:18:54;;;;;;;0.50;0.50;;;;;;;20.43;32.73;101085.80;1735919;82;22135;-44
2022/05/19 11:21:32;;;;;;;3.62;0.90;;;;;;;20.56;31.16;101085.55;1735230;82;20842;-43
2022/05/19 11:24:12;;;;;;;5.90;0.70;;;;;;;20.53;32.05;101082.62;1735690;82;20965;-44
2022/05/19 11:26:54;;;;;;;1.82;0.60;;;;;;;20.36;32.08;101099.25;1735800;81;20980;-44
2022/05/19 11:29:45;;;;;;;0.45;0.45;;;;;;;20.22;31.60;101075.41;1727367;82;20973;-44
2022/05/19 11:32:19;;;;;;;0.50;0.50;;;;;;;20.39;29.81;101078.06;1735979;82;21918;-44
2022/05/19 11:35:07;;;;;;;0.50;0.50;;;;;;;20.46;30.66;101068.55;1731200;82;20909;-42
2022/05/19 11:37:50;;;;;;;4.97;0.50;;;;;;;20.46;30.70;101081.25;1736105;82;20940;-45
2022/05/19 11:40:27;;;;;;;1.27;0.70;;;;;;;20.48;29.89;101074.58;1736026;82;20921;-44
2022/05/19 11:43:24;;;;;;;2.67;0.53;;;;;;;20.66;29.36;101063.58;1736166;82;21048;-44
2022/05/19 11:46:01;;;;;;;3.37;0.60;;;;;;;20.97;30.68;101072.56;1736006;82;21827;-44
2022/05/19 11:55:19;;;;;;;2.15;0.50;;;;;;;21.46;28.94;101065.56;1704381;82;21098;-45
2022/05/19 11:58:03;;;;;;;3.15;0.65;;;;;;;21.38;28.28;101058.11;1735992;82;20964;-44
2022/05/19 12:00:58;;;;;;;3.52;0.75;;;;;;;21.29;29.60;101067.80;1736063;82;20944;-45
2022/05/19 12:03:46;;;;;;;3.33;0.60;;;;;;;21.27;28.91;101046.84;1735877;82;20932;-44
2022/05/19 12:06:34;;;;;;;3.85;0.85;;;;;;;21.21;29.68;101051.11;1735942;82;21438;-44
2022/05/19 12:09:27;;;;;;;1.95;1.05;;;;;;;21.12;29.76;101042.40;1735882;82;20885;-45
2022/05/19 12:12:19;;;;;;;1.05;0.60;;;;;;;21.19;29.99;101047.25;1735855;82;20963;-44
2022/05/19 12:14:49;;;;;;;2.42;0.70;;;;;;;21.33;29.35;101035.98;1735942;81;21138;-44
2022/05/19 12:17:29;;;;;;;3.65;0.70;;;;;;;21.64;31.61;101029.48;1735893;82;20968;-44